createdAt,value
2022-11-30T00:00:10.162Z,1014.28
2022-11-30T00:01:10.147Z,1014.22
2022-11-30T00:02:10.259Z,1014.28
2022-11-30T00:03:10.321Z,1014.33
2022-11-30T00:04:10.077Z,1014.30
2022-11-30T00:05:10.084Z,1014.28
2022-11-30T00:06:10.035Z,1014.26
2022-11-30T00:07:10.020Z,1014.26
2022-11-30T00:08:09.990Z,1014.29
2022-11-30T00:09:09.963Z,1014.31
2022-11-30T00:10:09.940Z,1014.32
2022-11-30T00:11:09.934Z,1014.27
2022-11-30T00:12:09.897Z,1014.27
2022-11-30T00:13:09.876Z,1014.23
2022-11-30T00:14:09.850Z,1014.29
2022-11-30T00:15:09.832Z,1014.27
2022-11-30T00:16:09.821Z,1014.27
2022-11-30T00:17:09.795Z,1014.28
2022-11-30T00:18:09.760Z,1014.28
2022-11-30T00:19:09.743Z,1014.27
2022-11-30T00:20:09.721Z,1014.27
2022-11-30T00:21:09.726Z,1014.28
2022-11-30T00:22:09.675Z,1014.30
2022-11-30T00:23:09.655Z,1014.28
2022-11-30T00:24:09.629Z,1014.32
2022-11-30T00:25:09.612Z,1014.26
2022-11-30T00:26:09.585Z,1014.28
2022-11-30T00:27:09.571Z,1014.25
2022-11-30T00:28:09.541Z,1014.26
2022-11-30T00:29:09.521Z,1014.29
2022-11-30T00:30:09.506Z,1014.22
2022-11-30T00:31:09.519Z,1014.25
2022-11-30T00:32:09.452Z,1014.27
2022-11-30T00:33:09.438Z,1014.28
2022-11-30T00:34:09.407Z,1014.28
2022-11-30T00:35:09.388Z,1014.28
2022-11-30T00:36:09.361Z,1014.29
2022-11-30T00:37:09.365Z,1014.29
2022-11-30T00:38:09.326Z,1014.29
2022-11-30T00:39:09.306Z,1014.28
2022-11-30T00:40:09.281Z,1014.30
2022-11-30T00:41:09.255Z,1014.31
2022-11-30T00:42:09.226Z,1014.28
2022-11-30T00:43:09.210Z,1014.30
2022-11-30T00:44:09.182Z,1014.28
2022-11-30T00:45:09.164Z,1014.31
2022-11-30T00:46:09.299Z,1014.31
2022-11-30T00:47:09.122Z,1014.27
2022-11-30T00:48:09.091Z,1014.26
2022-11-30T00:49:09.073Z,1014.27
2022-11-30T00:50:09.045Z,1014.25
2022-11-30T00:51:09.027Z,1014.25
2022-11-30T00:52:09.002Z,1014.25
2022-11-30T00:53:09.007Z,1014.23
2022-11-30T00:54:08.958Z,1014.23
2022-11-30T00:55:08.938Z,1014.28
2022-11-30T00:56:08.911Z,1014.24
2022-11-30T00:57:08.893Z,1014.23
2022-11-30T00:58:08.868Z,1014.25
2022-11-30T00:59:08.849Z,1014.21
2022-11-30T01:00:08.824Z,1014.21
2022-11-30T01:01:08.894Z,1014.20
2022-11-30T01:02:08.862Z,1014.20
2022-11-30T01:03:08.756Z,1014.23
2022-11-30T01:04:08.735Z,1014.20
2022-11-30T01:05:08.713Z,1014.22
2022-11-30T01:06:08.699Z,1014.22
2022-11-30T01:07:08.665Z,1014.21
2022-11-30T01:08:08.640Z,1014.19
2022-11-30T01:09:08.643Z,1014.22
2022-11-30T01:10:08.607Z,1014.23
2022-11-30T01:11:08.575Z,1014.22
2022-11-30T01:12:08.552Z,1014.22
2022-11-30T01:13:08.533Z,1014.20
2022-11-30T01:14:08.510Z,1014.21
2022-11-30T01:15:08.497Z,1014.20
2022-11-30T01:16:08.483Z,1014.23
2022-11-30T01:17:08.440Z,1014.25
2022-11-30T01:18:08.418Z,1014.23
2022-11-30T01:19:08.400Z,1014.21
2022-11-30T01:20:08.373Z,1014.21
2022-11-30T01:21:08.353Z,1014.22
2022-11-30T01:22:08.336Z,1014.26
2022-11-30T01:23:08.312Z,1014.25
2022-11-30T01:24:08.290Z,1014.28
2022-11-30T01:25:08.283Z,1014.29
2022-11-30T01:26:08.246Z,1014.32
2022-11-30T01:27:08.222Z,1014.33
2022-11-30T01:28:08.197Z,1014.32
2022-11-30T01:29:08.177Z,1014.33
2022-11-30T01:30:08.157Z,1014.35
2022-11-30T01:31:08.180Z,1014.33
2022-11-30T01:32:08.111Z,1014.32
2022-11-30T01:33:08.091Z,1014.29
2022-11-30T01:34:08.063Z,1014.29
2022-11-30T01:35:08.046Z,1014.26
2022-11-30T01:36:08.021Z,1014.31
2022-11-30T01:37:08.000Z,1014.24
2022-11-30T01:38:07.971Z,1014.25
2022-11-30T01:39:07.955Z,1014.24
2022-11-30T01:40:07.935Z,1014.24
2022-11-30T01:41:07.932Z,1014.26
2022-11-30T01:42:07.885Z,1014.29
2022-11-30T01:43:07.868Z,1014.30
2022-11-30T01:44:07.840Z,1014.34
2022-11-30T01:45:07.828Z,1014.37
2022-11-30T01:46:07.829Z,1014.37
2022-11-30T01:47:07.778Z,1014.37
2022-11-30T01:48:07.751Z,1014.39
2022-11-30T01:49:07.738Z,1014.36
2022-11-30T01:50:07.711Z,1014.39
2022-11-30T01:51:07.691Z,1014.33
2022-11-30T01:52:07.666Z,1014.38
2022-11-30T01:53:07.649Z,1014.38
2022-11-30T01:54:07.621Z,1014.39
2022-11-30T01:55:07.601Z,1014.41
2022-11-30T01:56:07.585Z,1014.37
2022-11-30T01:57:07.573Z,1014.42
2022-11-30T01:58:07.528Z,1014.41
2022-11-30T01:59:07.507Z,1014.38
2022-11-30T02:00:07.487Z,1014.36
2022-11-30T02:01:07.525Z,1014.38
2022-11-30T02:02:07.491Z,1014.34
2022-11-30T02:03:07.422Z,1014.35
2022-11-30T02:04:07.395Z,1014.37
2022-11-30T02:05:07.379Z,1014.31
2022-11-30T02:06:07.353Z,1014.33
2022-11-30T02:07:07.456Z,1014.32
2022-11-30T02:08:07.427Z,1014.26
2022-11-30T02:09:07.290Z,1014.26
2022-11-30T02:10:07.266Z,1014.28
2022-11-30T02:11:07.242Z,1014.27
2022-11-30T02:12:07.219Z,1014.29
2022-11-30T02:13:07.222Z,1014.35
2022-11-30T02:14:07.177Z,1014.32
2022-11-30T02:15:07.157Z,1014.35
2022-11-30T02:16:07.211Z,1014.33
2022-11-30T02:17:07.112Z,1014.36
2022-11-30T02:18:07.087Z,1014.37
2022-11-30T02:19:07.072Z,1014.37
2022-11-30T02:20:07.047Z,1014.36
2022-11-30T02:21:07.024Z,1014.37
2022-11-30T02:22:07.000Z,1014.41
2022-11-30T02:23:06.978Z,1014.40
2022-11-30T02:24:06.955Z,1014.40
2022-11-30T02:25:06.936Z,1014.41
2022-11-30T02:26:06.913Z,1014.42
2022-11-30T02:27:06.892Z,1014.46
2022-11-30T02:28:06.865Z,1014.44
2022-11-30T02:29:06.868Z,1014.40
2022-11-30T02:30:06.818Z,1014.46
2022-11-30T02:31:06.869Z,1014.48
2022-11-30T02:32:06.777Z,1014.44
2022-11-30T02:33:06.754Z,1014.42
2022-11-30T02:34:06.728Z,1014.46
2022-11-30T02:35:06.707Z,1014.44
2022-11-30T02:36:06.686Z,1014.44
2022-11-30T02:37:06.667Z,1014.44
2022-11-30T02:38:06.637Z,1014.46
2022-11-30T02:39:06.620Z,1014.45
2022-11-30T02:40:06.602Z,1014.44
2022-11-30T02:41:06.578Z,1014.47
2022-11-30T02:42:06.552Z,1014.43
2022-11-30T02:43:06.533Z,1014.45
2022-11-30T02:44:06.512Z,1014.43
2022-11-30T02:45:06.513Z,1014.42
2022-11-30T02:46:06.525Z,1014.42
2022-11-30T02:47:06.445Z,1014.36
2022-11-30T02:48:06.417Z,1014.37
2022-11-30T02:49:06.398Z,1014.35
2022-11-30T02:50:06.377Z,1014.35
2022-11-30T02:51:06.357Z,1014.36
2022-11-30T02:52:06.341Z,1014.35
2022-11-30T02:53:06.314Z,1014.36
2022-11-30T02:54:06.287Z,1014.38
2022-11-30T02:55:06.267Z,1014.37
2022-11-30T02:56:06.244Z,1014.34
2022-11-30T02:57:06.223Z,1014.34
2022-11-30T02:58:06.194Z,1014.39
2022-11-30T02:59:06.178Z,1014.37
2022-11-30T03:00:06.157Z,1014.39
2022-11-30T03:01:06.204Z,1014.38
2022-11-30T03:02:06.112Z,1014.37
2022-11-30T03:03:06.242Z,1014.38
2022-11-30T03:04:06.065Z,1014.37
2022-11-30T03:05:06.047Z,1014.41
2022-11-30T03:06:06.023Z,1014.39
2022-11-30T03:07:06.000Z,1014.40
2022-11-30T03:08:05.974Z,1014.40
2022-11-30T03:09:05.956Z,1014.42
2022-11-30T03:10:05.936Z,1014.41
2022-11-30T03:11:05.924Z,1014.42
2022-11-30T03:12:05.892Z,1014.46
2022-11-30T03:13:05.871Z,1014.42
2022-11-30T03:14:05.843Z,1014.43
2022-11-30T03:15:05.829Z,1014.46
2022-11-30T03:16:05.845Z,1014.40
2022-11-30T03:17:05.806Z,1014.42
2022-11-30T03:18:05.760Z,1014.42
2022-11-30T03:19:05.741Z,1014.38
2022-11-30T03:20:05.714Z,1014.39
2022-11-30T03:21:05.693Z,1014.42
2022-11-30T03:22:05.671Z,1014.43
2022-11-30T03:23:05.651Z,1014.41
2022-11-30T03:24:05.624Z,1014.45
2022-11-30T03:25:05.608Z,1014.43
2022-11-30T03:26:05.578Z,1014.45
2022-11-30T03:27:05.563Z,1014.50
2022-11-30T03:28:05.532Z,1014.51
2022-11-30T03:29:05.517Z,1014.51
2022-11-30T03:30:05.491Z,1014.50
2022-11-30T03:31:05.537Z,1014.52
2022-11-30T03:32:05.445Z,1014.50
2022-11-30T03:33:05.448Z,1014.51
2022-11-30T03:34:05.406Z,1014.52
2022-11-30T03:35:05.382Z,1014.51
2022-11-30T03:36:05.356Z,1014.53
2022-11-30T03:37:05.342Z,1014.53
2022-11-30T03:38:05.315Z,1014.52
2022-11-30T03:39:05.300Z,1014.52
2022-11-30T03:40:05.275Z,1014.54
2022-11-30T03:41:05.250Z,1014.56
2022-11-30T03:42:05.229Z,1014.53
2022-11-30T03:43:05.210Z,1014.50
2022-11-30T03:44:05.180Z,1014.54
2022-11-30T03:45:05.167Z,1014.53
2022-11-30T03:46:05.217Z,1014.49
2022-11-30T03:47:05.122Z,1014.52
2022-11-30T03:48:05.092Z,1014.50
2022-11-30T03:49:05.092Z,1014.53
2022-11-30T03:50:05.046Z,1014.52
2022-11-30T03:51:05.038Z,1014.52
2022-11-30T03:52:05.002Z,1014.50
2022-11-30T03:53:04.983Z,1014.55
2022-11-30T03:54:04.962Z,1014.53
2022-11-30T03:55:04.956Z,1014.53
2022-11-30T03:56:04.915Z,1014.52
2022-11-30T03:57:04.896Z,1014.56
2022-11-30T03:58:04.874Z,1014.54
2022-11-30T03:59:04.856Z,1014.54
2022-11-30T04:00:04.835Z,1014.52
2022-11-30T04:01:04.806Z,1014.56
2022-11-30T04:02:04.825Z,1014.57
2022-11-30T04:03:04.792Z,1014.59
2022-11-30T04:04:04.738Z,1014.62
2022-11-30T04:05:04.743Z,1014.58
2022-11-30T04:06:04.694Z,1014.64
2022-11-30T04:07:04.671Z,1014.63
2022-11-30T04:08:04.650Z,1014.62
2022-11-30T04:09:04.630Z,1014.62
2022-11-30T04:10:08.430Z,1014.65
2022-11-30T04:11:04.589Z,1014.62
2022-11-30T04:12:04.563Z,1014.63
2022-11-30T04:13:04.541Z,1014.60
2022-11-30T04:14:04.516Z,1014.59
2022-11-30T04:15:04.494Z,1014.56
2022-11-30T04:16:04.512Z,1014.55
2022-11-30T04:17:04.453Z,1014.50
2022-11-30T04:18:04.422Z,1014.55
2022-11-30T04:19:04.411Z,1014.52
2022-11-30T04:20:04.382Z,1014.51
2022-11-30T04:21:04.385Z,1014.54
2022-11-30T04:22:04.338Z,1014.52
2022-11-30T04:23:04.325Z,1014.50
2022-11-30T04:24:04.294Z,1014.47
2022-11-30T04:25:04.273Z,1014.50
2022-11-30T04:26:04.249Z,1014.44
2022-11-30T04:27:04.230Z,1014.45
2022-11-30T04:28:04.205Z,1014.46
2022-11-30T04:29:04.811Z,1014.44
2022-11-30T04:30:04.162Z,1014.44
2022-11-30T04:31:04.205Z,1014.41
2022-11-30T04:32:04.116Z,1014.41
2022-11-30T04:33:04.101Z,1014.39
2022-11-30T04:34:04.074Z,1014.40
2022-11-30T04:35:04.048Z,1014.42
2022-11-30T04:36:04.028Z,1014.42
2022-11-30T04:37:04.027Z,1014.41
2022-11-30T04:38:03.982Z,1014.41
2022-11-30T04:39:03.965Z,1014.40
2022-11-30T04:40:03.939Z,1014.45
2022-11-30T04:41:03.916Z,1014.41
2022-11-30T04:42:03.887Z,1014.46
2022-11-30T04:43:03.871Z,1014.46
2022-11-30T04:44:03.847Z,1014.48
2022-11-30T04:45:03.831Z,1014.46
2022-11-30T04:46:03.806Z,1014.44
2022-11-30T04:47:03.784Z,1014.49
2022-11-30T04:48:03.764Z,1014.47
2022-11-30T04:49:03.738Z,1014.47
2022-11-30T04:50:03.718Z,1014.49
2022-11-30T04:51:03.698Z,1014.49
2022-11-30T04:52:03.670Z,1014.48
2022-11-30T04:53:03.669Z,1014.51
2022-11-30T04:54:03.624Z,1014.53
2022-11-30T04:55:03.624Z,1014.55
2022-11-30T04:56:03.579Z,1014.55
2022-11-30T04:57:03.562Z,1014.57
2022-11-30T04:58:03.535Z,1014.58
2022-11-30T04:59:03.522Z,1014.62
2022-11-30T05:00:03.497Z,1014.60
2022-11-30T05:01:03.475Z,1014.62
2022-11-30T05:02:03.536Z,1014.61
2022-11-30T05:03:03.423Z,1014.59
2022-11-30T05:04:03.499Z,1014.62
2022-11-30T05:05:03.379Z,1014.62
2022-11-30T05:06:03.355Z,1014.65
2022-11-30T05:07:03.337Z,1014.65
2022-11-30T05:08:03.375Z,1014.67
2022-11-30T05:09:03.320Z,1014.70
2022-11-30T05:10:03.268Z,1014.69
2022-11-30T05:11:03.248Z,1014.72
2022-11-30T05:12:03.220Z,1014.74
2022-11-30T05:13:03.200Z,1014.72
2022-11-30T05:14:03.177Z,1014.70
2022-11-30T05:15:03.157Z,1014.71
2022-11-30T05:16:03.242Z,1014.70
2022-11-30T05:17:03.112Z,1014.73
2022-11-30T05:18:03.086Z,1014.70
2022-11-30T05:19:03.071Z,1014.71
2022-11-30T05:20:03.041Z,1014.77
2022-11-30T05:21:03.020Z,1014.77
2022-11-30T05:22:02.999Z,1014.76
2022-11-30T05:23:02.981Z,1014.75
2022-11-30T05:24:02.949Z,1014.80
2022-11-30T05:25:02.957Z,1014.79
2022-11-30T05:26:02.907Z,1014.81
2022-11-30T05:27:06.470Z,1014.78
2022-11-30T05:28:02.868Z,1014.78
2022-11-30T05:29:02.842Z,1014.86
2022-11-30T05:30:02.820Z,1014.79
2022-11-30T05:31:02.858Z,1014.82
2022-11-30T05:32:02.774Z,1014.79
2022-11-30T05:33:02.764Z,1014.81
2022-11-30T05:34:02.729Z,1014.83
2022-11-30T05:35:02.715Z,1014.82
2022-11-30T05:36:08.825Z,1014.85
2022-11-30T05:37:02.662Z,1014.84
2022-11-30T05:38:02.639Z,1014.88
2022-11-30T05:39:02.621Z,1014.86
2022-11-30T05:40:02.589Z,1014.89
2022-11-30T05:41:02.597Z,1014.87
2022-11-30T05:42:02.549Z,1014.86
2022-11-30T05:43:02.538Z,1014.88
2022-11-30T05:44:02.504Z,1014.89
2022-11-30T05:45:02.491Z,1014.91
2022-11-30T05:46:02.460Z,1014.89
2022-11-30T05:47:02.520Z,1014.91
2022-11-30T05:48:02.413Z,1014.92
2022-11-30T05:49:02.394Z,1014.92
2022-11-30T05:50:02.365Z,1014.95
2022-11-30T05:51:02.348Z,1014.97
2022-11-30T05:52:02.334Z,1014.93
2022-11-30T05:53:02.305Z,1014.94
2022-11-30T05:54:02.287Z,1014.95
2022-11-30T05:55:02.261Z,1014.96
2022-11-30T05:56:02.237Z,1014.98
2022-11-30T05:57:02.239Z,1014.96
2022-11-30T05:58:02.197Z,1014.99
2022-11-30T05:59:02.177Z,1014.95
2022-11-30T06:00:02.149Z,1014.96
2022-11-30T06:01:02.125Z,1015.02
2022-11-30T06:02:02.233Z,1015.02
2022-11-30T06:03:02.193Z,1015.04
2022-11-30T06:04:05.988Z,1015.03
2022-11-30T06:05:02.035Z,1015.07
2022-11-30T06:06:02.025Z,1015.06
2022-11-30T06:07:01.991Z,1015.08
2022-11-30T06:08:02.024Z,1015.10
2022-11-30T06:09:01.947Z,1015.11
2022-11-30T06:10:01.935Z,1015.10
2022-11-30T06:11:01.905Z,1015.09
2022-11-30T06:12:01.878Z,1015.06
2022-11-30T06:13:01.880Z,1015.06
2022-11-30T06:14:01.836Z,1015.05
2022-11-30T06:15:01.812Z,1015.07
2022-11-30T06:16:01.837Z,1015.06
2022-11-30T06:17:01.768Z,1015.06
2022-11-30T06:18:01.741Z,1015.08
2022-11-30T06:19:01.729Z,1015.08
2022-11-30T06:20:01.703Z,1015.06
2022-11-30T06:21:01.677Z,1015.09
2022-11-30T06:22:01.652Z,1015.11
2022-11-30T06:23:01.630Z,1015.10
2022-11-30T06:24:01.608Z,1015.13
2022-11-30T06:25:01.588Z,1015.12
2022-11-30T06:26:01.562Z,1015.12
2022-11-30T06:27:01.541Z,1015.13
2022-11-30T06:28:01.518Z,1015.11
2022-11-30T06:29:01.518Z,1015.13
2022-11-30T06:30:01.494Z,1015.11
2022-11-30T06:31:01.459Z,1015.13
2022-11-30T06:32:01.540Z,1015.13
2022-11-30T06:33:01.410Z,1015.14
2022-11-30T06:34:01.385Z,1015.17
2022-11-30T06:35:01.362Z,1015.17
2022-11-30T06:36:01.341Z,1015.14
2022-11-30T06:37:01.321Z,1015.17
2022-11-30T06:38:01.295Z,1015.17
2022-11-30T06:39:01.273Z,1015.20
2022-11-30T06:40:08.650Z,1015.20
2022-11-30T06:41:01.231Z,1015.20
2022-11-30T06:42:01.206Z,1015.18
2022-11-30T06:43:01.190Z,1015.18
2022-11-30T06:44:01.163Z,1015.19
2022-11-30T06:45:01.164Z,1015.21
2022-11-30T06:46:01.167Z,1015.24
2022-11-30T06:47:01.099Z,1015.25
2022-11-30T06:48:01.074Z,1015.25
2022-11-30T06:49:01.055Z,1015.27
2022-11-30T06:50:01.033Z,1015.25
2022-11-30T06:51:01.011Z,1015.24
2022-11-30T06:52:00.988Z,1015.24
2022-11-30T06:53:00.961Z,1015.21
2022-11-30T06:54:00.941Z,1015.24
2022-11-30T06:55:00.923Z,1015.23
2022-11-30T06:56:03.102Z,1015.21
2022-11-30T06:57:00.878Z,1015.26
2022-11-30T06:58:00.847Z,1015.27
2022-11-30T06:59:00.829Z,1015.22
2022-11-30T07:00:00.804Z,1015.25
2022-11-30T07:01:00.836Z,1015.27
2022-11-30T07:02:06.066Z,1015.27
2022-11-30T07:03:00.739Z,1015.25
2022-11-30T07:04:00.733Z,1015.26
2022-11-30T07:05:00.696Z,1015.27
2022-11-30T07:06:00.668Z,1015.28
2022-11-30T07:07:00.654Z,1015.31
2022-11-30T07:08:00.705Z,1015.29
2022-11-30T07:09:00.603Z,1015.30
2022-11-30T07:10:00.579Z,1015.32
2022-11-30T07:11:00.566Z,1015.33
2022-11-30T07:12:00.538Z,1015.32
2022-11-30T07:13:00.518Z,1015.30
2022-11-30T07:14:00.498Z,1015.33
2022-11-30T07:15:00.478Z,1015.34
2022-11-30T07:16:00.448Z,1015.35
2022-11-30T07:17:00.446Z,1015.36
2022-11-30T07:18:00.400Z,1015.38
2022-11-30T07:19:00.383Z,1015.38
2022-11-30T07:20:00.361Z,1015.37
2022-11-30T07:21:00.336Z,1015.36
2022-11-30T07:22:00.313Z,1015.41
2022-11-30T07:23:00.290Z,1015.40
2022-11-30T07:24:00.269Z,1015.40
2022-11-30T07:25:00.251Z,1015.46
2022-11-30T07:26:00.224Z,1015.47
2022-11-30T07:27:00.203Z,1015.47
2022-11-30T07:28:00.181Z,1015.50
2022-11-30T07:29:00.152Z,1015.49
2022-11-30T07:30:00.131Z,1015.50
2022-11-30T07:31:00.119Z,1015.49
2022-11-30T07:32:00.165Z,1015.49
2022-11-30T07:33:00.093Z,1015.47
2022-11-30T07:34:00.053Z,1015.49
2022-11-30T07:35:00.027Z,1015.49
2022-11-30T07:36:00.002Z,1015.50
2022-11-30T07:36:59.979Z,1015.51
2022-11-30T07:37:59.956Z,1015.53
2022-11-30T07:38:59.934Z,1015.52
2022-11-30T07:39:59.909Z,1015.56
2022-11-30T07:40:59.891Z,1015.57
2022-11-30T07:41:59.864Z,1015.57
2022-11-30T07:42:59.843Z,1015.59
2022-11-30T07:43:59.820Z,1015.59
2022-11-30T07:45:00.124Z,1015.64
2022-11-30T07:45:59.810Z,1015.61
2022-11-30T07:46:59.756Z,1015.67
2022-11-30T07:47:59.729Z,1015.67
2022-11-30T07:48:59.729Z,1015.66
2022-11-30T07:49:59.687Z,1015.68
2022-11-30T07:50:59.665Z,1015.70
2022-11-30T07:51:59.640Z,1015.70
2022-11-30T07:52:59.626Z,1015.72
2022-11-30T07:53:59.592Z,1015.69
2022-11-30T07:54:59.578Z,1015.69
2022-11-30T07:55:59.545Z,1015.70
2022-11-30T07:56:59.535Z,1015.71
2022-11-30T07:57:59.508Z,1015.72
2022-11-30T07:58:59.482Z,1015.72
2022-11-30T07:59:59.464Z,1015.74
2022-11-30T08:00:59.538Z,1015.74
2022-11-30T08:01:59.552Z,1015.77
2022-11-30T08:02:59.429Z,1015.78
2022-11-30T08:03:59.376Z,1015.75
2022-11-30T08:04:59.483Z,1015.73
2022-11-30T08:05:59.326Z,1015.76
2022-11-30T08:06:59.317Z,1015.75
2022-11-30T08:07:59.299Z,1015.77
2022-11-30T08:08:59.259Z,1015.80
2022-11-30T08:09:59.232Z,1015.80
2022-11-30T08:10:59.213Z,1015.78
2022-11-30T08:11:59.194Z,1015.83
2022-11-30T08:12:59.183Z,1015.85
2022-11-30T08:13:59.149Z,1015.86
2022-11-30T08:15:19.364Z,1015.86
2022-11-30T08:15:59.103Z,1015.89
2022-11-30T08:16:59.192Z,1015.90
2022-11-30T08:17:59.063Z,1015.90
2022-11-30T08:18:59.059Z,1015.91
2022-11-30T08:19:59.017Z,1015.91
2022-11-30T08:20:59.017Z,1015.90
2022-11-30T08:21:58.984Z,1015.92
2022-11-30T08:22:58.953Z,1015.95
2022-11-30T08:23:58.943Z,1015.97
2022-11-30T08:24:58.904Z,1015.94
2022-11-30T08:25:58.874Z,1015.96
2022-11-30T08:26:58.852Z,1015.98
2022-11-30T08:27:58.832Z,1015.98
2022-11-30T08:28:58.812Z,1016.00
2022-11-30T08:29:58.786Z,1016.00
2022-11-30T08:30:58.841Z,1016.03
2022-11-30T08:31:58.744Z,1016.05
2022-11-30T08:32:58.721Z,1016.00
2022-11-30T08:33:58.696Z,1016.02
2022-11-30T08:34:58.675Z,1016.04
2022-11-30T08:35:58.676Z,1016.06
2022-11-30T08:36:58.662Z,1016.06
2022-11-30T08:37:58.612Z,1016.02
2022-11-30T08:38:58.591Z,1015.98
2022-11-30T08:39:58.563Z,1016.01
2022-11-30T08:40:58.542Z,1016.02
2022-11-30T08:41:58.515Z,1016.07
2022-11-30T08:42:58.499Z,1016.03
2022-11-30T08:43:58.470Z,1016.06
2022-11-30T08:44:58.866Z,1016.09
2022-11-30T08:45:58.495Z,1016.08
2022-11-30T08:46:58.455Z,1016.06
2022-11-30T08:47:58.380Z,1016.06
2022-11-30T08:49:58.335Z,1016.14
2022-11-30T08:50:58.316Z,1016.12
2022-11-30T08:53:03.174Z,1016.17
2022-11-30T08:53:58.250Z,1016.17
2022-11-30T08:54:58.227Z,1016.16
2022-11-30T08:55:59.222Z,1016.17
2022-11-30T08:56:58.180Z,1016.20
2022-11-30T08:57:58.153Z,1016.21
2022-11-30T08:58:58.136Z,1016.22
2022-11-30T08:59:58.110Z,1016.21
2022-11-30T09:00:58.089Z,1016.23
2022-11-30T09:01:58.067Z,1016.26
2022-11-30T09:02:58.140Z,1016.25
2022-11-30T09:03:58.025Z,1016.31
2022-11-30T09:04:58.004Z,1016.28
2022-11-30T09:05:57.978Z,1016.28
2022-11-30T09:06:57.960Z,1016.31
2022-11-30T09:07:57.984Z,1016.29
2022-11-30T09:08:57.933Z,1016.31
2022-11-30T09:09:57.885Z,1016.31
2022-11-30T09:10:57.864Z,1016.28
2022-11-30T09:11:57.849Z,1016.31
2022-11-30T09:12:57.822Z,1016.30
2022-11-30T09:13:57.798Z,1016.31
2022-11-30T09:14:58.661Z,1016.31
2022-11-30T09:15:57.784Z,1016.32
2022-11-30T09:16:57.737Z,1016.36
2022-11-30T09:17:57.705Z,1016.35
2022-11-30T09:18:57.691Z,1016.34
2022-11-30T09:19:57.663Z,1016.40
2022-11-30T09:20:57.646Z,1016.39
2022-11-30T09:21:57.621Z,1016.41
2022-11-30T09:22:57.598Z,1016.37
2022-11-30T09:23:57.568Z,1016.42
2022-11-30T09:24:57.578Z,1016.38
2022-11-30T09:25:57.532Z,1016.41
2022-11-30T09:26:57.523Z,1016.42
2022-11-30T09:27:57.481Z,1016.43
2022-11-30T09:28:57.463Z,1016.43
2022-11-30T09:29:57.437Z,1016.44
2022-11-30T09:30:57.464Z,1016.43
2022-11-30T09:31:57.394Z,1016.44
2022-11-30T09:32:57.373Z,1016.47
2022-11-30T09:33:57.345Z,1016.44
2022-11-30T09:34:57.330Z,1016.46
2022-11-30T09:35:57.302Z,1016.45
2022-11-30T09:36:57.284Z,1016.41
2022-11-30T09:37:57.259Z,1016.41
2022-11-30T09:38:57.235Z,1016.41
2022-11-30T09:39:57.214Z,1016.40
2022-11-30T09:40:57.211Z,1016.43
2022-11-30T09:41:57.176Z,1016.41
2022-11-30T09:42:57.144Z,1016.40
2022-11-30T09:43:57.133Z,1016.36
2022-11-30T09:44:57.103Z,1016.35
2022-11-30T09:45:57.145Z,1016.33
2022-11-30T09:46:57.061Z,1016.34
2022-11-30T09:47:57.029Z,1016.38
2022-11-30T09:48:57.017Z,1016.36
2022-11-30T09:49:56.991Z,1016.35
2022-11-30T09:50:56.969Z,1016.34
2022-11-30T09:51:56.944Z,1016.35
2022-11-30T09:52:56.921Z,1016.36
2022-11-30T09:53:56.898Z,1016.34
2022-11-30T09:54:56.875Z,1016.33
2022-11-30T09:55:56.855Z,1016.33
2022-11-30T09:56:56.857Z,1016.35
2022-11-30T09:57:56.810Z,1016.33
2022-11-30T09:58:56.789Z,1016.36
2022-11-30T09:59:56.763Z,1016.35
2022-11-30T10:00:56.751Z,1016.36
2022-11-30T10:01:57.429Z,1016.38
2022-11-30T10:02:56.859Z,1016.36
2022-11-30T10:03:56.679Z,1016.39
2022-11-30T10:04:56.651Z,1016.36
2022-11-30T10:05:56.627Z,1016.38
2022-11-30T10:06:56.609Z,1016.39
2022-11-30T10:07:56.655Z,1016.39
2022-11-30T10:08:56.562Z,1016.40
2022-11-30T10:10:23.902Z,1016.38
2022-11-30T10:10:56.531Z,1016.38
2022-11-30T10:11:56.531Z,1016.37
2022-11-30T10:12:56.493Z,1016.41
2022-11-30T10:13:56.456Z,1016.41
2022-11-30T10:15:00.102Z,1016.39
2022-11-30T10:15:56.473Z,1016.39
2022-11-30T10:16:56.388Z,1016.36
2022-11-30T10:17:56.356Z,1016.35
2022-11-30T10:18:56.336Z,1016.37
2022-11-30T10:19:56.312Z,1016.34
2022-11-30T10:20:56.289Z,1016.36
2022-11-30T10:21:56.264Z,1016.34
2022-11-30T10:22:56.246Z,1016.31
2022-11-30T10:23:56.221Z,1016.29
2022-11-30T10:24:56.202Z,1016.29
2022-11-30T10:25:56.180Z,1016.27
2022-11-30T10:26:56.161Z,1016.29
2022-11-30T10:27:56.132Z,1016.27
2022-11-30T10:28:56.134Z,1016.29
2022-11-30T10:29:56.086Z,1016.29
2022-11-30T10:30:56.129Z,1016.27
2022-11-30T10:31:56.041Z,1016.26
2022-11-30T10:32:56.040Z,1016.29
2022-11-30T10:33:55.998Z,1016.32
2022-11-30T10:34:55.986Z,1016.31
2022-11-30T10:35:55.952Z,1016.30
2022-11-30T10:36:55.933Z,1016.26
2022-11-30T10:37:55.906Z,1016.31
2022-11-30T10:38:55.888Z,1016.33
2022-11-30T10:39:55.864Z,1016.28
2022-11-30T10:40:55.853Z,1016.30
2022-11-30T10:41:55.820Z,1016.35
2022-11-30T10:42:55.799Z,1016.31
2022-11-30T10:43:55.774Z,1016.31
2022-11-30T10:44:55.775Z,1016.32
2022-11-30T10:45:55.817Z,1016.30
2022-11-30T10:46:55.821Z,1016.32
2022-11-30T10:47:55.684Z,1016.32
2022-11-30T10:48:55.663Z,1016.28
2022-11-30T10:49:55.641Z,1016.31
2022-11-30T10:50:55.620Z,1016.34
2022-11-30T10:51:55.590Z,1016.30
2022-11-30T10:52:55.580Z,1016.29
2022-11-30T10:53:55.555Z,1016.30
2022-11-30T10:55:00.587Z,1016.28
2022-11-30T10:55:55.502Z,1016.30
2022-11-30T10:56:55.481Z,1016.31
2022-11-30T10:57:55.461Z,1016.27
2022-11-30T10:58:55.440Z,1016.28
2022-11-30T10:59:55.415Z,1016.27
2022-11-30T11:00:55.412Z,1016.26
2022-11-30T11:01:55.408Z,1016.27
2022-11-30T11:02:55.504Z,1016.25
2022-11-30T11:03:55.368Z,1016.26
2022-11-30T11:04:55.303Z,1016.23
2022-11-30T11:05:55.352Z,1016.25
2022-11-30T11:06:55.606Z,1016.21
2022-11-30T11:07:55.412Z,1016.23
2022-11-30T11:08:55.225Z,1016.25
2022-11-30T11:09:55.202Z,1016.23
2022-11-30T11:10:55.269Z,1016.20
2022-11-30T11:11:55.142Z,1016.20
2022-11-30T11:12:55.122Z,1016.22
2022-11-30T11:13:55.097Z,1016.22
2022-11-30T11:14:55.079Z,1016.21
2022-11-30T11:15:55.157Z,1016.24
2022-11-30T11:16:55.052Z,1016.23
2022-11-30T11:17:55.008Z,1016.23
2022-11-30T11:18:54.985Z,1016.20
2022-11-30T11:19:54.965Z,1016.23
2022-11-30T11:20:55.844Z,1016.25
2022-11-30T11:21:54.923Z,1016.23
2022-11-30T11:22:54.893Z,1016.27
2022-11-30T11:23:54.876Z,1016.24
2022-11-30T11:24:54.863Z,1016.27
2022-11-30T11:25:54.936Z,1016.29
2022-11-30T11:26:54.816Z,1016.24
2022-11-30T11:27:54.779Z,1016.26
2022-11-30T11:28:54.772Z,1016.27
2022-11-30T11:29:54.738Z,1016.28
2022-11-30T11:30:54.764Z,1016.28
2022-11-30T11:31:54.689Z,1016.32
2022-11-30T11:32:54.692Z,1016.31
2022-11-30T11:33:54.654Z,1016.33
2022-11-30T11:34:54.629Z,1016.36
2022-11-30T11:35:54.608Z,1016.33
2022-11-30T11:36:54.589Z,1016.32
2022-11-30T11:37:54.552Z,1016.31
2022-11-30T11:38:54.542Z,1016.35
2022-11-30T11:39:54.519Z,1016.35
2022-11-30T11:40:54.502Z,1016.32
2022-11-30T11:41:54.463Z,1016.34
2022-11-30T11:42:54.450Z,1016.33
2022-11-30T11:43:54.421Z,1016.35
2022-11-30T11:44:54.400Z,1016.34
2022-11-30T11:45:54.384Z,1016.34
2022-11-30T11:46:54.411Z,1016.35
2022-11-30T11:47:54.330Z,1016.36
2022-11-30T11:48:54.345Z,1016.38
2022-11-30T11:49:54.285Z,1016.33
2022-11-30T11:51:09.573Z,1016.32
2022-11-30T11:51:54.241Z,1016.34
2022-11-30T11:52:54.222Z,1016.35
2022-11-30T11:53:54.395Z,1016.34
2022-11-30T11:54:54.179Z,1016.35
2022-11-30T11:55:54.151Z,1016.31
2022-11-30T11:56:54.138Z,1016.34
2022-11-30T11:57:54.103Z,1016.32
2022-11-30T11:58:54.085Z,1016.29
2022-11-30T11:59:54.074Z,1016.30
2022-11-30T12:01:05.759Z,1016.32
2022-11-30T12:01:54.027Z,1016.31
2022-11-30T12:02:54.057Z,1016.34
2022-11-30T12:03:54.025Z,1016.31
2022-11-30T12:04:53.999Z,1016.32
2022-11-30T12:05:53.931Z,1016.37
2022-11-30T12:06:53.905Z,1016.37